Time;durP1;ratioP1;P1;durP2;ratioP2;P2;SDS_P1;SDS_P2;PMS_P1;PMS_P2;Temp;Humidity;BMP_temperature;BMP_pressure;BME280_temperature;BME280_humidity;BME280_pressure;Samples;Min_cycle;Max_cycle;Signal;HPM_P1;HPM_P2
2021/11/05 00:00:17;;;;;;;4.63;3.05;;;;;;;4.63;77.63;95652.03;5052120;28;20057;-50
2021/11/05 00:02:44;;;;;;;3.95;2.97;;;;;;;4.60;77.65;95647.28;5047121;28;20132;-49
2021/11/05 00:05:11;;;;;;;4.63;2.90;;;;;;;4.51;77.68;95651.75;5038673;28;20043;-52
2021/11/05 00:07:38;;;;;;;4.28;2.83;;;;;;;4.47;78.58;95658.81;5108738;22;20067;-53
2021/11/05 00:10:07;;;;;;;4.18;2.83;;;;;;;4.50;78.46;95657.41;5092118;28;20036;-49
2021/11/05 00:12:34;;;;;;;4.00;2.80;;;;;;;4.64;77.49;95650.94;5090927;28;20384;-54
2021/11/05 00:15:01;;;;;;;3.80;2.90;;;;;;;4.55;77.58;95665.31;5090347;28;20061;-52
2021/11/05 00:17:28;;;;;;;4.22;2.97;;;;;;;4.91;76.42;95651.97;5053870;28;20041;-52
2021/11/05 00:19:55;;;;;;;5.60;3.13;;;;;;;4.62;77.35;95652.34;5071349;28;20123;-53
2021/11/05 00:22:22;;;;;;;4.05;2.88;;;;;;;4.55;77.89;95658.13;5091438;28;20048;-51
2021/11/05 00:24:49;;;;;;;4.25;3.08;;;;;;;4.57;78.31;95655.91;5085169;28;20048;-53
2021/11/05 00:27:16;;;;;;;4.68;3.28;;;;;;;4.49;78.42;95661.19;5093279;28;20067;-45
2021/11/05 00:29:43;;;;;;;4.07;2.67;;;;;;;4.41;78.84;95660.78;5091539;28;20072;-48
2021/11/05 00:32:11;;;;;;;4.38;3.20;;;;;;;4.56;78.37;95661.56;5090700;28;20511;-49
2021/11/05 00:34:38;;;;;;;5.32;2.97;;;;;;;4.55;78.25;95663.47;5073071;28;20134;-51
2021/11/05 00:37:05;;;;;;;4.65;2.90;;;;;;;4.53;78.27;95662.97;5086277;28;20043;-52
2021/11/05 00:39:33;;;;;;;4.13;2.80;;;;;;;4.45;78.64;95661.78;5091497;28;20044;-49
2021/11/05 00:42:00;;;;;;;4.75;3.08;;;;;;;4.42;78.77;95662.38;5088923;28;20040;-50
2021/11/05 00:44:27;;;;;;;5.20;2.85;;;;;;;4.39;79.44;95662.97;5090484;28;20672;-50
2021/11/05 00:46:54;;;;;;;4.28;3.00;;;;;;;4.28;79.67;95658.13;5091399;28;20135;-49
2021/11/05 00:49:21;;;;;;;3.83;2.83;;;;;;;4.32;79.26;95662.59;5091893;28;20128;-51
2021/11/05 00:51:48;;;;;;;4.50;3.38;;;;;;;4.30;80.09;95670.13;5085952;28;20124;-49
2021/11/05 00:54:15;;;;;;;4.07;2.90;;;;;;;4.33;79.56;95664.19;5066920;28;20123;-50
2021/11/05 00:56:42;;;;;;;4.43;3.35;;;;;;;4.65;78.20;95670.50;5091495;28;20135;-49
2021/11/05 00:59:09;;;;;;;5.45;3.28;;;;;;;4.51;78.54;95667.81;5091517;28;20050;-50
2021/11/05 01:01:38;;;;;;;5.18;3.25;;;;;;;4.47;78.66;95663.38;5088666;28;20052;-50
2021/11/05 01:04:05;;;;;;;4.32;3.10;;;;;;;4.48;78.29;95668.41;5065699;28;20046;-51
2021/11/05 01:06:32;;;;;;;4.00;3.00;;;;;;;4.40;78.84;95669.13;5091298;28;20463;-52
2021/11/05 01:08:59;;;;;;;5.55;3.25;;;;;;;4.27;78.86;95670.72;5090999;28;20045;-52
2021/11/05 01:11:26;;;;;;;3.95;2.75;;;;;;;4.26;79.11;95676.38;5089804;28;20544;-52
2021/11/05 01:13:53;;;;;;;4.55;2.72;;;;;;;4.43;79.11;95672.00;5081652;28;20127;-50
2021/11/05 01:16:20;;;;;;;5.10;3.20;;;;;;;4.46;79.01;95678.66;5091300;28;20127;-46
2021/11/05 01:18:47;;;;;;;4.40;2.70;;;;;;;4.39;78.76;95673.69;5089764;28;20044;-50
2021/11/05 01:21:15;;;;;;;4.05;2.97;;;;;;;4.50;77.73;95681.53;5085438;28;20036;-46
2021/11/05 01:23:42;;;;;;;4.63;3.33;;;;;;;5.12;75.18;95689.84;5083024;28;20106;-46
2021/11/05 01:26:09;;;;;;;6.22;3.40;;;;;;;5.06;75.15;95683.78;5087628;28;20040;-47
2021/11/05 01:28:38;;;;;;;4.85;3.53;;;;;;;5.06;74.76;95685.69;5091889;28;20346;-49
2021/11/05 01:31:05;;;;;;;4.30;3.33;;;;;;;4.74;75.89;95689.31;5089944;28;20040;-46
2021/11/05 01:33:33;;;;;;;4.60;3.50;;;;;;;4.72;75.74;95686.97;5090540;28;20393;-46
2021/11/05 01:36:00;;;;;;;5.22;3.63;;;;;;;4.89;75.67;95679.06;5088329;28;20218;-49
2021/11/05 01:38:27;;;;;;;4.80;3.53;;;;;;;5.06;74.49;95681.09;5090812;28;20134;-46
2021/11/05 01:40:54;;;;;;;4.47;3.20;;;;;;;5.32;73.55;95678.63;5090394;28;20123;-47
2021/11/05 01:43:22;;;;;;;4.95;3.47;;;;;;;4.56;75.68;95678.44;5089233;28;20577;-47
2021/11/05 01:45:49;;;;;;;4.80;3.58;;;;;;;5.21;73.67;95681.88;5085086;28;20155;-47
2021/11/05 01:48:16;;;;;;;4.47;3.28;;;;;;;5.12;74.06;95687.94;5090371;28;20070;-50
2021/11/05 01:50:43;;;;;;;4.65;3.35;;;;;;;5.28;73.32;95684.91;5080474;28;20111;-47
2021/11/05 01:53:11;;;;;;;5.35;3.10;;;;;;;4.95;74.59;95685.13;5079408;28;20048;-49
2021/11/05 01:55:39;;;;;;;4.50;3.42;;;;;;;4.90;74.47;95680.66;5084611;28;20514;-49
2021/11/05 01:58:06;;;;;;;5.45;3.72;;;;;;;5.20;73.69;95680.25;5089605;28;20044;-47
2021/11/05 02:00:33;;;;;;;4.68;3.15;;;;;;;4.88;75.10;95687.44;5074606;28;20052;-47
2021/11/05 02:03:01;;;;;;;3.83;3.03;;;;;;;4.73;75.00;95683.19;5087279;28;20530;-50
2021/11/05 02:05:28;;;;;;;4.10;3.03;;;;;;;4.86;74.43;95681.56;5090378;28;20497;-49
2021/11/05 02:07:57;;;;;;;5.25;3.25;;;;;;;4.95;74.42;95692.38;5091550;28;20147;-47
2021/11/05 02:10:27;;;;;;;5.78;3.03;;;;;;;4.71;75.00;95685.34;5068834;28;20139;-46
2021/11/05 02:12:56;;;;;;;5.30;3.30;;;;;;;4.70;75.50;95689.13;5090165;28;20478;-54
2021/11/05 02:15:24;;;;;;;4.07;2.95;;;;;;;4.77;75.29;95689.50;5090169;28;20040;-49
2021/11/05 02:17:52;;;;;;;5.03;3.22;;;;;;;5.14;73.45;95688.44;5094553;28;20040;-53
2021/11/05 02:20:25;;;;;;;4.35;3.03;;;;;;;4.67;75.30;95695.09;5077851;28;20048;-48
2021/11/05 02:22:53;;;;;;;4.05;2.80;;;;;;;4.92;74.43;95691.09;5088955;28;20131;-50
2021/11/05 02:25:23;;;;;;;5.00;3.35;;;;;;;4.77;75.54;95702.13;5083771;28;20055;-49
2021/11/05 02:27:53;;;;;;;5.50;3.47;;;;;;;4.72;74.99;95702.25;5094560;28;20153;-47
2021/11/05 02:30:20;;;;;;;4.32;3.22;;;;;;;4.81;74.69;95709.28;5093352;28;20131;-48
2021/11/05 02:32:48;;;;;;;5.07;3.30;;;;;;;5.16;73.41;95701.53;5079578;28;20043;-53
2021/11/05 02:35:16;;;;;;;4.40;2.95;;;;;;;4.74;74.76;95703.50;5086418;28;20044;-46
2021/11/05 02:37:45;;;;;;;4.65;3.28;;;;;;;4.59;75.69;95707.31;5094946;28;20123;-47
2021/11/05 02:40:14;;;;;;;6.30;3.58;;;;;;;4.93;74.11;95709.53;5095010;28;20048;-49
2021/11/05 02:42:41;;;;;;;5.70;2.90;;;;;;;4.63;75.30;95713.66;5083415;28;20048;-47
2021/11/05 02:45:09;;;;;;;4.57;3.60;;;;;;;4.58;76.06;95710.28;5087795;28;20063;-49
2021/11/05 02:47:36;;;;;;;3.83;2.85;;;;;;;4.51;76.22;95712.56;5094290;28;20071;-46
2021/11/05 02:50:11;;;;;;;4.93;3.40;;;;;;;4.81;74.85;95713.81;5093596;28;20067;-47
2021/11/05 02:52:38;;;;;;;4.72;3.25;;;;;;;4.91;74.43;95708.28;5087048;28;20040;-53
2021/11/05 02:55:07;;;;;;;4.20;2.95;;;;;;;4.61;75.85;95712.38;5086889;28;20046;-47
2021/11/05 02:57:35;;;;;;;5.47;3.40;;;;;;;4.77;75.17;95716.31;5093292;28;20036;-46
2021/11/05 03:00:06;;;;;;;4.85;3.05;;;;;;;4.64;76.15;95719.81;5094299;28;20044;-50
2021/11/05 03:02:33;;;;;;;4.05;3.45;;;;;;;4.59;76.11;95711.88;5091534;28;20531;-48
2021/11/05 03:05:00;;;;;;;4.28;3.10;;;;;;;4.39;76.62;95719.22;5093972;28;20097;-46
2021/11/05 03:07:27;;;;;;;4.82;3.40;;;;;;;4.29;76.81;95716.75;5076432;28;20047;-48
2021/11/05 03:09:54;;;;;;;5.32;3.38;;;;;;;4.21;77.68;95712.88;5091868;28;20036;-46
2021/11/05 03:12:21;;;;;;;4.55;3.40;;;;;;;4.04;77.99;95719.91;5089509;28;20135;-50
2021/11/05 03:14:48;;;;;;;5.28;3.25;;;;;;;3.91;78.72;95722.25;5091313;28;20039;-48
2021/11/05 03:17:16;;;;;;;4.47;3.28;;;;;;;3.97;78.41;95720.28;5094209;28;20131;-50
2021/11/05 03:19:43;;;;;;;5.50;3.45;;;;;;;3.91;79.09;95726.81;5091344;28;20051;-51
2021/11/05 03:22:10;;;;;;;5.22;3.40;;;;;;;4.00;78.81;95727.72;5079869;28;20443;-48
2021/11/05 03:24:37;;;;;;;4.57;3.33;;;;;;;3.94;79.02;95729.69;5085468;28;20050;-50
2021/11/05 03:27:04;;;;;;;4.97;3.38;;;;;;;3.91;79.17;95734.84;5092645;28;20044;-46
2021/11/05 03:29:31;;;;;;;4.45;3.33;;;;;;;3.91;79.07;95732.97;5091885;28;20066;-47
2021/11/05 03:31:58;;;;;;;5.85;3.35;;;;;;;3.95;79.08;95735.84;5091904;28;20036;-48
2021/11/05 03:34:25;;;;;;;3.85;2.88;;;;;;;3.81;79.31;95737.69;5087446;28;20040;-46
2021/11/05 03:36:52;;;;;;;4.45;3.33;;;;;;;4.12;77.75;95748.66;5094061;28;20040;-46
2021/11/05 03:39:19;;;;;;;4.43;3.55;;;;;;;3.89;78.96;95739.69;5091991;28;20037;-45
2021/11/05 03:41:46;;;;;;;5.07;3.30;;;;;;;3.87;78.88;95750.69;5092877;28;20051;-52
2021/11/05 03:44:13;;;;;;;4.85;3.20;;;;;;;3.81;79.23;95748.41;5092153;28;20044;-50
2021/11/05 03:46:40;;;;;;;4.20;3.08;;;;;;;3.83;79.61;95749.69;5091398;28;20521;-47
2021/11/05 03:49:07;;;;;;;5.35;3.20;;;;;;;3.75;79.46;95751.16;5073763;28;20040;-47
2021/11/05 03:51:35;;;;;;;5.72;3.00;;;;;;;3.78;79.60;95760.47;5089166;28;20047;-49
2021/11/05 03:54:02;;;;;;;4.32;3.30;;;;;;;3.74;79.30;95759.50;5072285;28;20044;-48
2021/11/05 03:56:30;;;;;;;5.05;3.03;;;;;;;3.75;79.54;95756.50;5074903;28;20075;-48
2021/11/05 03:58:57;;;;;;;4.88;3.00;;;;;;;3.67;79.47;95762.53;5092869;28;20131;-48
2021/11/05 04:01:24;;;;;;;12.48;7.13;;;;;;;3.69;80.12;95772.94;5091512;28;20089;-47
2021/11/05 04:03:51;;;;;;;7.13;4.50;;;;;;;3.80;80.13;95782.38;5087547;28;20044;-48
2021/11/05 04:06:20;;;;;;;4.38;3.47;;;;;;;3.83;79.83;95787.16;5087529;28;20078;-47
2021/11/05 04:08:47;;;;;;;5.55;3.20;;;;;;;3.75;79.64;95777.13;5092831;28;20128;-50
2021/11/05 04:11:16;;;;;;;4.75;3.30;;;;;;;3.72;79.69;95780.38;5092920;28;20516;-51
2021/11/05 04:13:43;;;;;;;3.97;2.92;;;;;;;3.71;79.80;95782.25;5087233;28;20662;-49
2021/11/05 04:16:11;;;;;;;4.90;3.30;;;;;;;3.73;80.21;95788.09;5089845;28;20048;-46
2021/11/05 04:18:39;;;;;;;7.30;3.50;;;;;;;3.85;80.19;95784.97;5092667;28;20139;-46
2021/11/05 04:21:06;;;;;;;4.32;3.28;;;;;;;3.91;80.26;95786.50;5092209;28;20036;-50
2021/11/05 04:23:33;;;;;;;4.57;2.90;;;;;;;3.95;79.81;95794.72;5081488;28;20052;-50
2021/11/05 04:26:01;;;;;;;4.28;3.20;;;;;;;3.88;80.23;95797.00;5084913;28;20048;-46
2021/11/05 04:28:28;;;;;;;4.50;3.10;;;;;;;3.96;79.31;95804.34;5092167;28;20039;-49
2021/11/05 04:30:55;;;;;;;4.30;3.03;;;;;;;3.92;79.67;95806.81;5091511;28;20044;-48
2021/11/05 04:33:22;;;;;;;3.80;2.95;;;;;;;3.99;79.96;95799.19;5089202;28;20039;-50
2021/11/05 04:35:49;;;;;;;6.07;3.15;;;;;;;4.11;78.82;95804.09;5072162;28;20044;-46
2021/11/05 04:38:16;;;;;;;5.57;3.30;;;;;;;4.07;80.00;95803.09;5091089;28;20040;-51
2021/11/05 04:40:43;;;;;;;4.53;3.47;;;;;;;4.06;79.60;95812.19;5085276;28;20089;-47
2021/11/05 04:43:10;;;;;;;5.10;3.28;;;;;;;4.45;78.62;95805.63;5092441;28;20046;-52
2021/11/05 04:45:37;;;;;;;4.32;3.33;;;;;;;4.65;77.47;95809.84;5089538;28;20056;-46
2021/11/05 04:48:04;;;;;;;5.20;3.92;;;;;;;4.79;76.24;95816.00;5084684;28;20075;-47
2021/11/05 04:50:32;;;;;;;4.88;3.50;;;;;;;5.18;74.44;95822.72;5078496;28;20404;-50
2021/11/05 04:52:59;;;;;;;4.65;3.47;;;;;;;5.03;74.29;95821.13;5085891;28;20040;-46
2021/11/05 04:55:26;;;;;;;4.72;3.50;;;;;;;5.32;73.90;95818.13;5089101;28;20043;-49
2021/11/05 04:57:53;;;;;;;4.10;3.10;;;;;;;5.34;73.26;95824.00;5090771;28;20135;-49
2021/11/05 05:00:21;;;;;;;4.38;2.95;;;;;;;4.70;76.53;95823.13;5092514;28;20050;-46
2021/11/05 05:02:48;;;;;;;5.90;3.22;;;;;;;4.72;76.69;95822.84;5088659;28;20040;-47
2021/11/05 05:05:16;;;;;;;4.53;3.28;;;;;;;4.59;76.84;95821.75;5090588;28;20047;-48
2021/11/05 05:07:43;;;;;;;5.78;3.53;;;;;;;4.52;77.32;95837.41;5092290;28;20510;-49
2021/11/05 05:10:11;;;;;;;4.70;3.30;;;;;;;4.39;77.68;95834.41;5091157;28;20068;-50
2021/11/05 05:12:39;;;;;;;6.45;3.72;;;;;;;4.38;77.89;95840.06;5090544;28;20039;-49
2021/11/05 05:15:08;;;;;;;5.43;3.90;;;;;;;4.37;78.07;95852.66;5088976;28;20036;-47
2021/11/05 05:17:35;;;;;;;4.68;3.53;;;;;;;4.25;78.56;95844.28;5090808;28;20036;-49
2021/11/05 05:20:04;;;;;;;4.65;3.25;;;;;;;4.22;78.55;95844.88;5080996;28;20412;-46
2021/11/05 05:22:31;;;;;;;5.97;4.13;;;;;;;4.15;78.96;95849.81;5091375;28;20119;-51
2021/11/05 05:24:58;;;;;;;5.25;3.80;;;;;;;4.30;78.46;95844.22;5083684;28;20154;-51
2021/11/05 05:27:25;;;;;;;6.50;4.00;;;;;;;4.35;78.37;95852.16;5092191;28;20040;-51
2021/11/05 05:29:52;;;;;;;5.07;3.67;;;;;;;4.25;78.38;95856.88;5090930;28;20234;-50
2021/11/05 05:32:19;;;;;;;7.20;4.10;;;;;;;4.22;78.53;95864.44;5084926;28;20143;-53
2021/11/05 05:34:46;;;;;;;4.40;3.30;;;;;;;4.12;79.27;95858.44;5088252;28;20478;-51
2021/11/05 05:37:13;;;;;;;6.35;3.80;;;;;;;4.14;78.64;95864.31;5089666;28;20032;-50
2021/11/05 05:39:40;;;;;;;5.40;3.38;;;;;;;4.18;78.94;95870.66;5088351;28;20131;-48
2021/11/05 05:42:07;;;;;;;5.90;4.20;;;;;;;4.22;78.90;95877.00;5091877;28;20040;-49
2021/11/05 05:44:34;;;;;;;5.50;3.40;;;;;;;4.20;78.75;95880.00;5089459;28;20036;-51
2021/11/05 05:47:02;;;;;;;6.25;4.10;;;;;;;4.31;78.56;95880.63;5090004;28;20044;-47
2021/11/05 05:49:29;;;;;;;5.97;4.10;;;;;;;4.26;78.90;95883.41;5086281;28;20160;-49
2021/11/05 05:51:56;;;;;;;6.13;4.25;;;;;;;4.33;78.69;95891.06;5090194;28;20032;-53
2021/11/05 05:54:23;;;;;;;6.57;4.05;;;;;;;4.29;79.21;95898.06;5088564;28;20126;-47
2021/11/05 05:56:50;;;;;;;5.78;4.07;;;;;;;4.28;79.42;95907.97;5090305;28;20048;-52
2021/11/05 05:59:19;;;;;;;4.82;3.80;;;;;;;4.13;80.84;95903.69;5090065;28;20070;-53
2021/11/05 06:01:46;;;;;;;4.80;3.75;;;;;;;4.02;81.86;95898.75;5089171;28;20097;-51
2021/11/05 06:04:13;;;;;;;5.35;3.53;;;;;;;4.05;80.59;95907.00;5088908;28;20504;-50
2021/11/05 06:06:40;;;;;;;5.82;4.07;;;;;;;4.15;80.34;95906.03;5091236;28;20413;-47
2021/11/05 06:09:07;;;;;;;6.22;3.55;;;;;;;4.17;80.35;95917.28;5091063;28;20044;-52
2021/11/05 06:11:34;;;;;;;5.63;3.63;;;;;;;4.26;80.01;95920.06;5086296;28;20085;-47
2021/11/05 06:14:04;;;;;;;4.25;3.20;;;;;;;4.23;79.83;95916.13;5088277;28;20040;-50
2021/11/05 06:16:31;;;;;;;5.75;4.15;;;;;;;4.18;79.88;95924.22;5088579;28;20054;-46
2021/11/05 06:18:59;;;;;;;7.40;3.65;;;;;;;4.08;80.69;95927.84;5064589;28;20079;-52
2021/11/05 06:21:26;;;;;;;8.82;4.85;;;;;;;4.08;80.96;95924.38;5089274;28;20047;-51
2021/11/05 06:23:54;;;;;;;6.43;3.92;;;;;;;4.17;80.56;95938.69;5087829;28;20520;-46
2021/11/05 06:26:21;;;;;;;4.88;3.33;;;;;;;4.19;79.88;95941.88;5090442;28;20040;-46
2021/11/05 06:28:49;;;;;;;5.97;3.70;;;;;;;4.24;79.85;95939.13;5090383;28;20044;-50
2021/11/05 06:31:16;;;;;;;5.57;3.83;;;;;;;4.13;79.73;95941.16;5089476;28;20040;-46
2021/11/05 06:33:44;;;;;;;6.20;3.53;;;;;;;4.27;79.07;95945.78;5087521;28;20043;-50
2021/11/05 06:36:11;;;;;;;4.95;3.65;;;;;;;4.29;79.17;95963.16;5090113;28;20158;-54
2021/11/05 06:38:39;;;;;;;5.72;3.58;;;;;;;4.21;79.28;95956.56;5084189;28;20048;-55
2021/11/05 06:41:06;;;;;;;8.65;4.05;;;;;;;4.22;79.43;95960.84;5084802;28;20122;-54
2021/11/05 06:43:34;;;;;;;5.57;3.75;;;;;;;4.26;79.52;95966.41;5090788;28;20465;-53
2021/11/05 06:46:01;;;;;;;5.28;3.72;;;;;;;4.24;79.51;95965.91;5089246;28;20056;-55
2021/11/05 06:48:28;;;;;;;5.35;3.95;;;;;;;4.30;80.07;95972.00;5088783;28;20036;-51
2021/11/05 06:50:57;;;;;;;7.07;3.47;;;;;;;4.27;79.27;95973.34;5068837;28;20406;-53
2021/11/05 06:53:24;;;;;;;6.47;4.00;;;;;;;4.19;79.61;95976.69;5083059;28;20036;-52
2021/11/05 06:55:51;;;;;;;6.55;3.70;;;;;;;4.55;78.15;95981.50;5086798;28;20468;-51
2021/11/05 06:58:19;;;;;;;5.90;4.20;;;;;;;4.19;79.37;95987.38;5088385;28;20112;-51
2021/11/05 07:00:48;;;;;;;6.10;3.72;;;;;;;4.08;80.19;95992.09;5085895;28;20043;-52
2021/11/05 07:03:16;;;;;;;6.15;4.18;;;;;;;4.78;77.83;95996.69;5095045;28;20048;-51
2021/11/05 07:05:43;;;;;;;7.13;4.18;;;;;;;4.29;79.52;96006.00;5094724;28;20477;-48
2021/11/05 07:08:10;;;;;;;8.50;4.30;;;;;;;4.72;78.32;96008.56;5094624;28;20126;-52
2021/11/05 07:10:38;;;;;;;7.65;4.40;;;;;;;4.50;78.54;96005.69;5090370;28;20395;-52
2021/11/05 07:13:05;;;;;;;7.50;4.32;;;;;;;4.61;78.63;96015.16;5073920;28;20070;-52
2021/11/05 07:15:32;;;;;;;6.82;4.35;;;;;;;4.78;77.51;96020.81;5094873;28;20538;-53
2021/11/05 07:18:01;;;;;;;9.35;4.82;;;;;;;4.64;78.88;96022.63;5084832;28;20247;-51
2021/11/05 07:20:28;;;;;;;6.90;4.68;;;;;;;4.57;79.12;96024.88;5074120;28;20040;-53
2021/11/05 07:22:55;;;;;;;10.93;4.68;;;;;;;4.47;79.98;96028.50;5090055;28;20156;-49
2021/11/05 07:25:23;;;;;;;8.90;5.18;;;;;;;4.96;78.11;96029.09;5090707;28;20040;-46
2021/11/05 07:27:50;;;;;;;9.65;5.05;;;;;;;4.66;79.37;96036.53;5092829;28;20541;-50
2021/11/05 07:30:17;;;;;;;7.38;5.10;;;;;;;4.63;79.09;96045.16;5094703;28;20451;-49
2021/11/05 07:32:45;;;;;;;6.85;5.13;;;;;;;4.72;78.85;96051.47;5091875;28;20104;-48
2021/11/05 07:35:18;;;;;;;7.93;4.88;;;;;;;4.91;78.24;96049.53;5075894;28;20097;-47
2021/11/05 07:37:46;;;;;;;7.07;5.05;;;;;;;4.64;79.32;96052.09;5084176;28;20039;-47
2021/11/05 07:40:14;;;;;;;8.13;5.22;;;;;;;4.56;79.98;96055.44;5093679;28;20044;-47
2021/11/05 07:42:42;;;;;;;8.93;4.60;;;;;;;4.52;80.21;96075.84;5068493;28;20062;-46
2021/11/05 07:45:11;;;;;;;8.65;4.55;;;;;;;4.49;80.09;96069.22;5094270;28;20507;-46
2021/11/05 07:47:41;;;;;;;6.10;4.38;;;;;;;4.45;80.43;96078.91;5074674;28;20138;-51
2021/11/05 07:50:09;;;;;;;7.13;3.97;;;;;;;4.47;80.76;96086.66;5088571;28;20131;-48
2021/11/05 07:52:37;;;;;;;7.85;4.97;;;;;;;4.65;81.68;96083.19;5082648;28;20645;-47
2021/11/05 07:55:07;;;;;;;7.18;4.88;;;;;;;4.92;79.47;96088.66;5091757;28;20044;-47
2021/11/05 07:57:35;;;;;;;6.13;4.30;;;;;;;5.30;77.40;96091.28;5091593;28;20174;-46
2021/11/05 08:00:07;;;;;;;7.80;4.70;;;;;;;5.15;77.61;96099.56;5088366;28;20051;-46
2021/11/05 08:02:35;;;;;;;6.75;4.35;;;;;;;4.94;78.41;96099.13;5057157;28;20047;-46
2021/11/05 08:05:02;;;;;;;9.23;4.53;;;;;;;4.99;78.19;96108.94;5093691;28;20121;-48
2021/11/05 08:07:29;;;;;;;7.05;4.57;;;;;;;5.36;77.07;96116.94;5092649;28;20044;-49
2021/11/05 08:09:56;;;;;;;6.00;4.38;;;;;;;5.09;77.84;96119.53;5092747;28;20135;-50
2021/11/05 08:12:23;;;;;;;8.32;4.75;;;;;;;5.28;77.20;96120.28;5084522;28;20428;-50
2021/11/05 08:14:50;;;;;;;6.30;4.25;;;;;;;5.17;77.63;96124.22;5092865;28;20126;-53
2021/11/05 08:17:17;;;;;;;7.63;4.40;;;;;;;5.21;78.19;96127.91;5073633;28;20501;-52
2021/11/05 08:19:44;;;;;;;8.30;4.40;;;;;;;5.27;77.16;96129.44;5085315;28;20115;-53
2021/11/05 08:22:11;;;;;;;6.82;4.53;;;;;;;5.49;76.40;96138.72;5089943;28;20073;-53
2021/11/05 08:24:38;;;;;;;7.00;4.10;;;;;;;5.27;77.66;96144.72;5085135;28;20050;-53
2021/11/05 08:27:05;;;;;;;7.43;4.20;;;;;;;5.38;77.70;96152.31;5093335;28;20489;-52
2021/11/05 08:29:32;;;;;;;6.32;4.32;;;;;;;5.24;77.93;96156.84;5072912;28;20046;-53
2021/11/05 08:31:59;;;;;;;7.82;4.53;;;;;;;5.38;77.30;96157.66;5093023;28;20036;-53
2021/11/05 08:34:26;;;;;;;5.65;4.10;;;;;;;5.27;77.66;96160.84;5064634;28;20174;-50
2021/11/05 08:36:53;;;;;;;7.13;4.20;;;;;;;5.30;77.76;96165.63;5090912;28;20139;-50
2021/11/05 08:39:20;;;;;;;8.35;4.57;;;;;;;5.34;77.78;96174.66;5091676;28;20052;-52
2021/11/05 08:41:48;;;;;;;7.20;4.13;;;;;;;5.40;77.64;96176.19;5084278;28;20051;-53
2021/11/05 08:44:15;;;;;;;6.88;3.65;;;;;;;5.67;76.24;96170.09;5098786;28;20067;-51
2021/11/05 08:46:43;;;;;;;8.05;3.90;;;;;;;5.53;77.14;96185.38;5101212;28;20726;-51
2021/11/05 08:49:15;;;;;;;7.60;3.90;;;;;;;5.47;76.88;96184.66;5091149;28;20044;-53
2021/11/05 08:51:46;;;;;;;6.35;4.13;;;;;;;5.52;77.04;96197.19;5081686;28;20047;-50
2021/11/05 08:54:13;;;;;;;7.43;4.22;;;;;;;5.91;75.59;96190.63;5083807;28;20572;-49
2021/11/05 08:56:41;;;;;;;7.18;4.13;;;;;;;6.07;75.17;96203.50;5087296;28;20040;-53
2021/11/05 08:59:12;;;;;;;6.03;3.80;;;;;;;5.95;75.84;96199.72;5052076;28;20413;-49
2021/11/05 09:01:39;;;;;;;5.30;3.55;;;;;;;5.84;76.35;96199.84;5088681;28;20090;-49
2021/11/05 09:04:08;;;;;;;6.20;4.47;;;;;;;5.82;75.87;96204.75;5097842;28;20701;-50
2021/11/05 09:06:35;;;;;;;5.35;4.05;;;;;;;5.94;76.14;96206.19;5091902;28;20044;-49
2021/11/05 09:09:04;;;;;;;6.55;4.57;;;;;;;6.20;74.67;96211.88;5073850;28;20056;-49
2021/11/05 09:11:31;;;;;;;5.95;4.30;;;;;;;6.22;74.62;96215.88;5090658;28;20044;-48
2021/11/05 09:13:59;;;;;;;7.10;4.65;;;;;;;6.04;75.19;96219.41;5091462;28;20067;-50
2021/11/05 09:16:30;;;;;;;6.88;4.15;;;;;;;5.96;75.87;96222.81;5073066;28;20072;-48
2021/11/05 09:19:01;;;;;;;5.07;3.67;;;;;;;5.84;75.96;96224.03;5090064;28;20127;-50
2021/11/05 09:21:31;;;;;;;4.88;3.78;;;;;;;6.01;75.30;96225.38;5094216;28;20036;-50
2021/11/05 09:23:59;;;;;;;7.72;4.10;;;;;;;5.98;75.76;96228.66;5093874;28;20046;-53
2021/11/05 09:26:26;;;;;;;7.38;3.97;;;;;;;5.94;76.08;96241.09;5088194;28;20043;-48
2021/11/05 09:28:54;;;;;;;5.78;3.63;;;;;;;5.99;75.91;96241.81;5096411;28;20052;-51
2021/11/05 09:31:22;;;;;;;5.20;3.70;;;;;;;6.02;75.71;96241.22;5096333;28;20051;-49
2021/11/05 09:33:49;;;;;;;5.88;3.95;;;;;;;6.04;76.14;96246.28;5095806;28;20047;-51
2021/11/05 09:36:16;;;;;;;7.53;3.92;;;;;;;6.13;75.38;96259.84;5090913;28;20066;-49
2021/11/05 09:38:45;;;;;;;6.05;4.10;;;;;;;6.28;74.77;96246.16;5090613;28;20044;-50
2021/11/05 09:41:12;;;;;;;6.35;4.05;;;;;;;6.14;75.06;96254.16;5091085;28;20036;-50
2021/11/05 09:43:40;;;;;;;6.97;4.57;;;;;;;6.65;73.23;96257.81;5089939;28;20050;-50
2021/11/05 09:46:08;;;;;;;5.40;3.90;;;;;;;6.28;74.77;96252.31;5073340;28;20075;-50
2021/11/05 09:48:37;;;;;;;5.78;4.20;;;;;;;6.32;74.25;96255.19;5098931;28;20136;-47
2021/11/05 09:51:06;;;;;;;4.90;3.70;;;;;;;6.33;74.78;96260.25;5091927;28;20047;-50
2021/11/05 09:53:38;;;;;;;6.22;4.32;;;;;;;6.48;74.08;96272.63;5100155;28;20058;-49
2021/11/05 09:56:08;;;;;;;5.68;4.60;;;;;;;6.44;74.71;96270.84;5099179;28;20040;-49
2021/11/05 09:58:38;;;;;;;7.82;4.35;;;;;;;6.40;74.05;96259.06;5091006;28;20051;-49
2021/11/05 10:01:07;;;;;;;5.68;4.30;;;;;;;6.24;74.21;96270.13;5097494;28;20124;-49
2021/11/05 10:03:35;;;;;;;6.50;4.20;;;;;;;6.32;74.54;96266.75;5096147;28;20064;-52
2021/11/05 10:06:07;;;;;;;5.28;4.10;;;;;;;6.41;74.02;96263.38;5096019;28;20097;-50
2021/11/05 10:08:36;;;;;;;6.10;4.15;;;;;;;6.21;74.19;96267.22;5097780;28;20222;-50
2021/11/05 10:11:38;;;;;;;6.80;4.10;;;;;;;6.71;72.94;96270.84;5099274;28;20456;-51
2021/11/05 10:14:17;;;;;;;6.72;4.10;;;;;;;6.72;73.15;96272.44;5024004;28;20076;-52
2021/11/05 10:17:01;;;;;;;6.55;3.63;;;;;;;6.76;73.13;96265.38;5083207;28;20036;-49
2021/11/05 10:20:07;;;;;;;6.55;4.50;;;;;;;6.59;73.12;96270.53;5088538;28;20040;-50
2021/11/05 10:22:46;;;;;;;5.65;3.58;;;;;;;6.46;73.58;96263.28;5092729;28;20131;-50
2021/11/05 10:25:32;;;;;;;5.15;3.45;;;;;;;6.51;73.11;96265.88;5075541;28;20087;-50
2021/11/05 10:28:15;;;;;;;6.13;2.95;;;;;;;6.56;72.06;96257.69;5091165;28;20076;-51
2021/11/05 10:30:42;;;;;;;4.80;3.17;;;;;;;6.94;70.94;96268.25;5088035;28;20049;-51
2021/11/05 10:33:15;;;;;;;4.22;3.00;;;;;;;7.09;70.18;96264.47;5092864;28;20040;-51
2021/11/05 10:35:46;;;;;;;5.88;3.70;;;;;;;6.98;70.80;96263.88;5090607;28;20042;-50
2021/11/05 10:38:30;;;;;;;9.15;3.83;;;;;;;6.93;71.23;96255.91;5102963;28;20039;-51
2021/11/05 10:41:00;;;;;;;10.38;6.70;;;;;;;7.19;70.73;96258.88;5092762;28;20504;-49
2021/11/05 10:43:33;;;;;;;19.75;9.38;;;;;;;7.25;69.43;96268.44;5094108;28;20043;-51
2021/11/05 10:46:00;;;;;;;13.77;8.77;;;;;;;7.06;70.21;96263.16;5093631;28;20040;-48
2021/11/05 10:48:30;;;;;;;9.32;5.65;;;;;;;7.13;70.50;96262.75;5083709;28;20289;-51
2021/11/05 10:51:03;;;;;;;7.07;4.10;;;;;;;7.29;69.75;96261.34;5093320;28;20044;-52
2021/11/05 10:53:32;;;;;;;;;;;;;;;7.43;69.77;96262.09;5084361;28;20036;-51
2021/11/05 10:56:09;;;;;;;18.35;11.45;;;;;;;7.42;69.28;96267.78;5103115;28;19926;-51
2021/11/05 10:58:39;;;;;;;7.40;4.63;;;;;;;7.34;69.54;96260.41;5100491;28;20051;-54
2021/11/05 11:01:15;;;;;;;6.05;3.80;;;;;;;7.34;69.30;96260.41;5093783;28;20119;-50
2021/11/05 11:03:48;;;;;;;4.70;3.50;;;;;;;7.13;70.24;96266.25;5083683;28;20040;-50
2021/11/05 11:06:26;;;;;;;5.15;3.22;;;;;;;7.40;70.24;96276.16;5088686;28;20436;-51
2021/11/05 11:08:58;;;;;;;3.70;2.60;;;;;;;7.41;70.11;96271.56;5093643;28;20515;-51
2021/11/05 11:11:33;;;;;;;6.95;3.53;;;;;;;7.23;70.11;96279.47;5095142;28;20138;-51
2021/11/05 11:14:02;;;;;;;3.95;2.95;;;;;;;7.37;69.27;96281.34;5099257;28;20131;-50
2021/11/05 11:16:35;;;;;;;5.88;2.88;;;;;;;7.33;69.61;96272.28;5105074;28;20122;-50
2021/11/05 11:19:09;;;;;;;4.50;3.00;;;;;;;7.10;69.96;96277.59;5076853;28;20044;-51
2021/11/05 11:21:50;;;;;;;4.25;3.05;;;;;;;7.20;70.19;96276.59;5090866;28;20119;-53
2021/11/05 11:24:21;;;;;;;3.50;2.50;;;;;;;7.35;69.49;96280.88;5092158;28;20062;-50
2021/11/05 11:26:50;;;;;;;3.85;2.53;;;;;;;7.68;68.28;96282.25;5085072;28;20510;-51
2021/11/05 11:29:19;;;;;;;3.58;2.70;;;;;;;7.43;69.59;96275.53;5093105;28;20131;-50
2021/11/05 11:31:47;;;;;;;3.70;2.45;;;;;;;7.11;69.75;96281.09;5092891;28;20058;-51
2021/11/05 11:34:15;;;;;;;4.30;2.88;;;;;;;7.24;69.29;96278.38;5086406;28;20123;-53
2021/11/05 11:36:50;;;;;;;5.35;3.00;;;;;;;7.42;70.35;96278.56;5090653;28;20048;-52
2021/11/05 11:39:20;;;;;;;5.43;3.30;;;;;;;7.26;70.47;96280.78;5094247;28;20048;-54
2021/11/05 11:41:48;;;;;;;4.85;2.92;;;;;;;7.54;70.00;96284.22;5091088;28;20551;-51
2021/11/05 11:44:21;;;;;;;4.53;3.10;;;;;;;7.47;70.35;96283.81;5100586;28;20046;-50
2021/11/05 11:47:02;;;;;;;4.15;2.75;;;;;;;7.48;69.96;96286.22;5091273;28;20133;-52